createdAt,value
2022-08-11T00:02:34.953Z,99922.91
2022-08-11T00:05:08.066Z,99928.50
2022-08-11T00:07:44.282Z,99933.63
2022-08-11T00:10:16.606Z,99927.97
2022-08-11T00:12:51.781Z,99922.81
2022-08-11T00:15:18.984Z,99925.94
2022-08-11T00:17:47.914Z,99927.41
2022-08-11T00:20:17.153Z,99925.94
2022-08-11T00:22:48.419Z,99923.66
2022-08-11T00:25:19.845Z,99933.44
2022-08-11T00:27:48.619Z,99933.44
2022-08-11T00:30:17.170Z,99931.63
2022-08-11T00:32:53.241Z,99941.41
2022-08-11T00:35:56.230Z,99934.78
2022-08-11T00:38:17.395Z,99936.44
2022-08-11T00:40:53.534Z,99940.28
2022-08-11T00:43:41.863Z,99943.00
2022-08-11T00:46:19.399Z,99940.06
2022-08-11T00:49:05.700Z,99947.19
2022-08-11T00:52:04.417Z,99939.38
2022-08-11T00:55:21.557Z,99947.34
2022-08-11T00:58:52.351Z,99943.34
2022-08-11T01:01:34.635Z,99940.06
2022-08-11T01:05:01.226Z,99937.81
2022-08-11T01:08:16.072Z,99945.44
2022-08-11T01:11:10.672Z,99948.59
2022-08-11T01:14:50.683Z,99949.59
2022-08-11T01:18:10.769Z,99947.47
2022-08-11T01:21:15.359Z,99954.09
2022-08-11T01:25:04.914Z,99952.50
2022-08-11T01:28:23.000Z,99952.53
2022-08-11T01:31:45.777Z,99950.25
2022-08-11T01:35:10.840Z,99954.53
2022-08-11T01:38:34.438Z,99948.78
2022-08-11T01:41:31.808Z,99942.69
2022-08-11T01:44:32.727Z,99945.31
2022-08-11T01:47:19.121Z,99940.19
2022-08-11T01:50:10.684Z,99954.28
2022-08-11T01:53:03.617Z,99950.63
2022-08-11T01:55:47.563Z,99948.38
2022-08-11T01:58:43.593Z,99948.38
2022-08-11T02:01:36.901Z,99947.22
2022-08-11T02:04:25.683Z,99946.06
2022-08-11T02:07:09.681Z,99947.16
2022-08-11T02:10:35.143Z,99943.03
2022-08-11T02:13:33.409Z,99948.31
2022-08-11T02:16:29.054Z,99948.97
2022-08-11T02:19:11.195Z,99938.41
2022-08-11T02:21:54.930Z,99945.66
2022-08-11T02:24:32.133Z,99945.97
2022-08-11T02:27:14.289Z,99948.91
2022-08-11T02:29:55.317Z,99944.28
2022-08-11T02:32:34.829Z,99943.47
2022-08-11T02:35:14.227Z,99937.50
2022-08-11T02:37:53.278Z,99924.13
2022-08-11T02:40:35.811Z,99935.19
2022-08-11T02:43:10.929Z,99932.63
2022-08-11T02:45:56.450Z,99939.25
2022-08-11T02:48:47.655Z,99936.44
2022-08-11T02:51:30.022Z,99932.44
2022-08-11T02:54:10.850Z,99924.31
2022-08-11T02:56:50.486Z,99928.28
2022-08-11T02:59:36.907Z,99924.16
2022-08-11T03:02:20.194Z,99930.72
2022-08-11T03:05:04.977Z,99939.91
2022-08-11T03:07:47.827Z,99941.38
2022-08-11T03:10:28.150Z,99935.81
2022-08-11T03:13:11.350Z,99942.31
2022-08-11T03:15:52.156Z,99925.31
2022-08-11T03:18:34.489Z,99933.13
2022-08-11T03:21:12.586Z,99934.03
2022-08-11T03:23:53.456Z,99944.34
2022-08-11T03:26:30.508Z,99940.22
2022-08-11T03:29:10.937Z,99940.00
2022-08-11T03:32:02.460Z,99938.66
2022-08-11T03:34:33.261Z,99937.13
2022-08-11T03:37:26.747Z,99944.78
2022-08-11T03:40:12.500Z,99950.44
2022-08-11T03:42:53.088Z,99943.44
2022-08-11T03:45:37.418Z,99951.81
2022-08-11T03:48:24.960Z,99947.38
2022-08-11T03:51:11.006Z,99954.41
2022-08-11T03:54:06.361Z,99955.06
2022-08-11T03:57:35.813Z,99954.03
2022-08-11T04:00:38.791Z,99964.50
2022-08-11T04:03:57.587Z,99955.25
2022-08-11T04:07:17.555Z,99955.75
2022-08-11T04:10:14.590Z,99959.88
2022-08-11T04:13:19.433Z,99961.59
2022-08-11T04:16:16.219Z,99956.19
2022-08-11T04:19:29.788Z,99962.78
2022-08-11T04:22:53.363Z,99957.06
2022-08-11T04:25:57.702Z,99959.53
2022-08-11T04:28:59.967Z,99958.34
2022-08-11T04:31:50.608Z,99960.56
2022-08-11T04:35:00.266Z,99960.63
2022-08-11T04:38:05.627Z,99959.22
2022-08-11T04:40:55.748Z,99962.13
2022-08-11T04:44:27.598Z,99968.28
2022-08-11T04:47:20.895Z,99969.28
2022-08-11T04:50:15.175Z,99971.25
2022-08-11T04:53:15.844Z,99969.19
2022-08-11T04:56:05.527Z,99971.44
2022-08-11T04:59:00.690Z,99971.59
2022-08-11T05:01:45.218Z,99978.44
2022-08-11T05:04:48.951Z,99975.50
2022-08-11T05:08:07.707Z,99977.59
2022-08-11T05:10:59.890Z,99984.06
2022-08-11T05:13:34.507Z,99985.28
2022-08-11T05:16:13.465Z,99991.00
2022-08-11T05:18:49.926Z,99984.47
2022-08-11T05:21:25.113Z,99978.75
2022-08-11T05:24:03.038Z,99982.66
2022-08-11T05:26:49.135Z,99997.88
2022-08-11T05:29:44.647Z,100002.22
2022-08-11T05:32:17.369Z,99996.03
2022-08-11T05:34:51.906Z,99997.72
2022-08-11T05:37:34.372Z,99996.41
2022-08-11T05:40:09.074Z,99996.25
2022-08-11T05:42:49.931Z,100004.78
2022-08-11T05:45:19.358Z,100000.53
2022-08-11T05:47:54.294Z,100005.13
2022-08-11T05:50:31.347Z,100013.31
2022-08-11T05:53:12.663Z,99986.09
2022-08-11T05:56:01.886Z,99992.09
2022-08-11T05:58:41.978Z,100008.22
2022-08-11T06:01:11.811Z,100007.94
2022-08-11T06:03:43.682Z,99999.91
2022-08-11T06:06:32.875Z,100007.38
2022-08-11T06:09:03.025Z,100002.13
2022-08-11T06:11:43.500Z,99997.22
2022-08-11T06:14:14.858Z,99999.03
2022-08-11T06:16:46.735Z,100000.75
2022-08-11T06:19:14.418Z,100001.91
2022-08-11T06:21:46.307Z,100004.59
2022-08-11T06:24:17.348Z,99991.34
2022-08-11T06:27:11.882Z,100008.53
2022-08-11T06:29:55.157Z,100003.00
2022-08-11T06:32:36.106Z,100007.19
2022-08-11T06:35:22.020Z,99994.34
2022-08-11T06:38:10.313Z,100005.47
2022-08-11T06:40:56.684Z,99999.72
2022-08-11T06:43:30.509Z,100004.38
2022-08-11T06:46:03.260Z,100003.41
2022-08-11T06:48:33.755Z,100005.34
2022-08-11T06:51:05.236Z,100012.75
2022-08-11T06:53:34.843Z,100007.59
2022-08-11T06:56:03.742Z,100008.13
2022-08-11T07:02:57.116Z,100004.19
2022-08-11T07:05:40.267Z,100006.94
2022-08-11T07:08:53.101Z,100007.16
2022-08-11T07:11:59.747Z,100007.44
2022-08-11T07:14:36.349Z,99997.94
2022-08-11T07:17:14.533Z,100007.97
2022-08-11T07:19:59.623Z,100004.44
2022-08-11T07:22:35.262Z,100005.44
2022-08-11T07:25:18.325Z,100012.00
2022-08-11T07:27:52.983Z,100004.31
2022-08-11T07:30:20.712Z,100005.03
2022-08-11T07:41:01.396Z,99989.13
2022-08-11T07:43:45.583Z,100000.75
2022-08-11T07:46:21.510Z,99996.84
2022-08-11T07:48:49.617Z,99984.84
2022-08-11T07:51:20.241Z,99963.69
2022-08-11T07:53:58.737Z,99975.81
2022-08-11T07:57:07.233Z,99986.13
2022-08-11T08:00:03.838Z,99978.91
2022-08-11T08:02:17.594Z,99971.81
2022-08-11T08:04:47.892Z,99974.63
2022-08-11T08:07:22.361Z,99958.47
2022-08-11T08:09:51.518Z,99957.22
2022-08-11T08:12:23.693Z,99952.28
2022-08-11T08:14:55.478Z,99956.66
2022-08-11T08:17:24.318Z,99947.09
2022-08-11T08:19:51.352Z,99952.41
2022-08-11T08:22:38.671Z,99958.78
2022-08-11T08:25:08.684Z,99954.66
2022-08-11T08:27:37.920Z,99959.25
2022-08-11T08:30:08.376Z,99957.53
2022-08-11T08:32:40.547Z,99948.38
2022-08-11T08:35:10.972Z,99948.69
2022-08-11T08:37:46.240Z,99962.00
2022-08-11T08:40:15.588Z,99951.97
2022-08-11T08:42:49.720Z,99952.88
2022-08-11T08:45:18.811Z,99957.78
2022-08-11T08:47:56.430Z,99951.59
2022-08-11T08:56:21.778Z,99945.34
2022-08-11T08:58:53.430Z,99950.50
2022-08-11T09:01:48.187Z,99943.94
2022-08-11T09:23:19.229Z,99919.16
2022-08-11T09:26:15.938Z,99946.03
2022-08-11T09:28:44.248Z,99935.88
2022-08-11T09:31:22.466Z,99948.88
2022-08-11T09:33:54.642Z,99953.75
2022-08-11T09:36:23.091Z,99952.78
2022-08-11T09:38:53.961Z,99954.63
2022-08-11T09:41:25.767Z,99956.06
2022-08-11T09:43:53.754Z,99951.22
2022-08-11T09:46:26.506Z,99957.28
2022-08-11T09:48:58.605Z,99946.88
2022-08-11T09:51:31.811Z,99925.38
2022-08-11T09:54:04.780Z,99927.19
2022-08-11T09:56:33.597Z,99935.91
2022-08-11T09:59:03.492Z,99937.19
2022-08-11T10:01:37.146Z,99941.44
2022-08-11T10:04:14.208Z,99932.09
2022-08-11T10:06:43.190Z,99949.25
2022-08-11T10:09:14.566Z,99933.88
2022-08-11T10:11:43.815Z,99922.78
2022-08-11T10:14:33.905Z,99921.41
2022-08-11T10:17:08.396Z,99920.09
2022-08-11T10:19:38.774Z,99924.38
2022-08-11T10:22:07.955Z,99915.84
2022-08-11T10:24:37.614Z,99915.28
2022-08-11T10:27:08.211Z,99905.16
2022-08-11T10:29:44.315Z,99916.84
2022-08-11T10:32:14.495Z,99914.22
2022-08-11T10:34:49.668Z,99918.41
2022-08-11T10:37:24.597Z,99906.09
2022-08-11T10:40:18.509Z,99908.97
2022-08-11T10:42:57.687Z,99901.28
2022-08-11T10:45:28.232Z,99880.16
2022-08-11T10:47:57.675Z,99877.31
2022-08-11T10:50:26.819Z,99861.31
2022-08-11T10:52:57.509Z,99894.28
2022-08-11T10:55:28.467Z,99871.41
2022-08-11T10:58:05.002Z,99877.88
2022-08-11T11:00:33.741Z,99878.19
2022-08-11T11:03:22.950Z,99883.84
2022-08-11T11:06:12.621Z,99872.31
2022-08-11T11:09:04.164Z,99868.31
2022-08-11T11:11:48.018Z,99861.94
2022-08-11T11:14:19.229Z,99874.66
2022-08-11T11:16:46.744Z,99865.88
2022-08-11T11:19:26.171Z,99864.22
2022-08-11T11:22:01.499Z,99864.03
2022-08-11T11:24:46.028Z,99841.31
2022-08-11T11:27:33.555Z,99850.13
2022-08-11T11:30:06.994Z,99846.03
2022-08-11T11:32:58.585Z,99847.47
2022-08-11T11:35:38.775Z,99842.06
2022-08-11T11:38:13.196Z,99839.16
2022-08-11T11:52:31.561Z,99791.47
2022-08-11T11:55:04.119Z,99820.50
2022-08-11T11:57:35.442Z,99802.03
2022-08-11T12:00:06.318Z,99809.06
2022-08-11T12:02:40.034Z,99801.31
2022-08-11T12:05:11.231Z,99798.41
2022-08-11T12:07:41.519Z,99805.06
2022-08-11T12:10:10.114Z,99801.22
2022-08-11T12:12:37.799Z,99797.06
2022-08-11T12:15:07.307Z,99804.28
2022-08-11T12:17:36.197Z,99803.84
2022-08-11T12:20:31.536Z,99809.34
2022-08-11T12:22:57.978Z,99783.50
2022-08-11T12:25:25.356Z,99780.44
2022-08-11T12:27:53.985Z,99785.97
2022-08-11T12:30:21.336Z,99787.81
2022-08-11T12:32:49.402Z,99773.28
2022-08-11T12:35:18.262Z,99789.94
2022-08-11T12:37:51.617Z,99790.91
2022-08-11T12:40:42.994Z,99787.69
2022-08-11T12:43:21.262Z,99763.28
2022-08-11T12:46:02.508Z,99758.31
2022-08-11T12:48:58.382Z,99770.81
2022-08-11T12:52:00.607Z,99777.00
2022-08-11T12:54:28.639Z,99767.81
2022-08-11T12:57:02.500Z,99757.66
2022-08-11T12:59:31.755Z,99755.97
2022-08-11T13:01:59.867Z,99734.66
2022-08-11T13:04:29.501Z,99751.13
2022-08-11T13:06:58.223Z,99744.63
2022-08-11T13:09:25.716Z,99732.06
2022-08-11T13:11:55.840Z,99729.50
2022-08-11T13:14:27.219Z,99729.47
2022-08-11T13:16:54.977Z,99731.50
2022-08-11T13:19:23.939Z,99725.34
2022-08-11T13:21:53.287Z,99726.44
2022-08-11T13:24:23.311Z,99733.25
2022-08-11T13:26:51.853Z,99728.72
2022-08-11T13:29:22.034Z,99725.28
2022-08-11T13:31:51.398Z,99726.34
2022-08-11T13:34:21.271Z,99724.19
2022-08-11T13:36:51.121Z,99711.00
2022-08-11T13:39:19.344Z,99727.03
2022-08-11T13:41:50.088Z,99736.84
2022-08-11T13:44:24.795Z,99724.56
2022-08-11T13:46:57.624Z,99719.84
2022-08-11T13:49:26.278Z,99708.44
2022-08-11T13:51:59.685Z,99703.31
2022-08-11T13:54:31.447Z,99702.88
2022-08-11T13:57:09.327Z,99706.56
2022-08-11T13:59:51.769Z,99687.41
2022-08-11T14:02:29.949Z,99696.09
2022-08-11T14:05:05.036Z,99693.13
2022-08-11T14:07:41.321Z,99701.94
2022-08-11T14:10:14.349Z,99697.78
2022-08-11T14:12:56.931Z,99704.22
2022-08-11T14:15:33.196Z,99692.94
2022-08-11T14:18:07.479Z,99684.41
2022-08-11T14:20:58.498Z,99671.06
2022-08-11T14:23:31.566Z,99674.56
2022-08-11T14:26:02.288Z,99671.19
2022-08-11T14:28:40.019Z,99690.56
2022-08-11T14:31:16.037Z,99675.63
2022-08-11T14:33:59.985Z,99683.00
2022-08-11T14:36:45.720Z,99668.84
2022-08-11T14:39:17.911Z,99674.78
2022-08-11T14:42:11.191Z,99671.66
2022-08-11T14:44:59.696Z,99663.72
2022-08-11T14:47:31.439Z,99659.63
2022-08-11T14:50:11.623Z,99654.59
2022-08-11T14:52:49.056Z,99662.06
2022-08-11T14:55:18.636Z,99661.97
2022-08-11T14:57:56.173Z,99657.19
2022-08-11T15:00:26.836Z,99650.88
2022-08-11T15:02:55.783Z,99640.81
2022-08-11T15:05:25.682Z,99654.59
2022-08-11T15:07:55.779Z,99653.06
2022-08-11T15:10:23.342Z,99650.50
2022-08-11T15:12:51.430Z,99642.31
2022-08-11T15:15:20.918Z,99643.75
2022-08-11T15:17:52.962Z,99647.00
2022-08-11T15:20:22.691Z,99638.59
2022-08-11T15:22:50.052Z,99629.59
2022-08-11T15:25:17.485Z,99625.16
2022-08-11T15:27:50.701Z,99628.78
2022-08-11T15:30:32.631Z,99648.41
2022-08-11T15:33:07.829Z,99626.78
2022-08-11T15:35:39.308Z,99629.16
2022-08-11T15:38:17.540Z,99624.56
2022-08-11T15:40:45.467Z,99629.56
2022-08-11T15:43:24.601Z,99618.84
2022-08-11T15:45:58.270Z,99624.00
2022-08-11T15:49:03.655Z,99620.25
2022-08-11T15:51:37.060Z,99621.88
2022-08-11T15:54:10.298Z,99616.63
2022-08-11T15:56:44.100Z,99608.34
2022-08-11T15:59:42.008Z,99611.25
2022-08-11T16:02:07.247Z,99610.91
2022-08-11T16:04:39.757Z,99605.53
2022-08-11T16:07:11.261Z,99606.72
2022-08-11T16:09:51.658Z,99603.56
2022-08-11T16:12:28.391Z,99594.34
2022-08-11T16:15:04.529Z,99601.34
2022-08-11T16:17:37.566Z,99600.06
2022-08-11T16:20:12.183Z,99595.41
2022-08-11T16:22:42.693Z,99594.00
2022-08-11T16:27:01.681Z,99602.16
2022-08-11T16:28:16.404Z,99593.09
2022-08-11T16:30:45.986Z,99592.25
2022-08-11T16:33:50.468Z,99585.94
2022-08-11T16:36:06.654Z,99590.13
2022-08-11T16:38:37.931Z,99583.84
2022-08-11T16:41:11.802Z,99573.78
2022-08-11T16:43:44.762Z,99576.03
2022-08-11T16:46:17.035Z,99572.88
2022-08-11T16:48:49.110Z,99573.44
2022-08-11T16:51:17.423Z,99582.91
2022-08-11T16:53:54.786Z,99576.13
2022-08-11T16:56:38.312Z,99580.69
2022-08-11T16:59:17.060Z,99586.16
2022-08-11T17:01:53.518Z,99571.00
2022-08-11T17:04:36.545Z,99582.00
2022-08-11T17:07:23.803Z,99577.16
2022-08-11T17:10:02.744Z,99580.56
2022-08-11T17:12:33.952Z,99581.94
2022-08-11T17:15:06.492Z,99586.63
2022-08-11T17:17:38.956Z,99574.00
2022-08-11T17:20:40.336Z,99577.97
2022-08-11T17:23:04.844Z,99570.06
2022-08-11T17:26:03.959Z,99572.75
2022-08-11T17:28:24.564Z,99559.66
2022-08-11T17:30:54.659Z,99557.47
2022-08-11T17:33:23.923Z,99559.66
2022-08-11T17:35:52.011Z,99562.81
2022-08-11T17:38:24.522Z,99564.09
2022-08-11T17:40:56.410Z,99553.69
2022-08-11T17:43:24.438Z,99559.66
2022-08-11T17:45:57.481Z,99553.59
2022-08-11T17:48:28.598Z,99556.16
2022-08-11T17:51:03.051Z,99559.88
2022-08-11T17:53:38.694Z,99555.78
2022-08-11T17:56:11.487Z,99558.78
2022-08-11T17:58:50.230Z,99553.06
2022-08-11T18:01:20.949Z,99553.41
2022-08-11T18:03:57.430Z,99564.81
2022-08-11T18:06:32.606Z,99565.53
2022-08-11T18:09:07.568Z,99566.78
2022-08-11T18:12:10.036Z,99567.28
2022-08-11T18:14:26.945Z,99572.81
2022-08-11T18:16:56.358Z,99577.44
2022-08-11T18:19:24.422Z,99580.56
2022-08-11T18:22:15.791Z,99580.56
2022-08-11T18:24:54.417Z,99584.00
2022-08-11T18:27:34.732Z,99569.47
2022-08-11T18:30:09.699Z,99588.72
2022-08-11T18:32:49.695Z,99579.44
2022-08-11T18:35:23.021Z,99577.59
2022-08-11T18:37:52.803Z,99577.88
2022-08-11T18:40:28.025Z,99596.22
2022-08-11T18:43:02.310Z,99605.00
2022-08-11T18:45:45.264Z,99605.88
2022-08-11T18:48:20.629Z,99604.97
2022-08-11T18:50:53.553Z,99600.94
2022-08-11T18:53:47.377Z,99602.00
2022-08-11T18:56:19.967Z,99607.00
2022-08-11T18:58:50.305Z,99614.41
2022-08-11T19:01:23.169Z,99615.25
2022-08-11T19:04:02.251Z,99616.75
2022-08-11T19:06:41.252Z,99617.00
2022-08-11T19:09:14.744Z,99613.19
2022-08-11T19:11:45.690Z,99612.63
2022-08-11T19:14:15.667Z,99618.84
2022-08-11T19:16:45.557Z,99624.00
2022-08-11T19:19:16.376Z,99621.00
2022-08-11T19:21:47.397Z,99615.34
2022-08-11T19:24:18.015Z,99625.56
2022-08-11T19:26:53.180Z,99639.56
2022-08-11T19:30:07.014Z,99634.28
2022-08-11T19:32:19.128Z,99628.75
2022-08-11T19:34:50.140Z,99631.84
2022-08-11T19:37:22.032Z,99631.03
2022-08-11T19:39:53.069Z,99637.44
2022-08-11T19:42:23.096Z,99637.88
2022-08-11T19:44:50.785Z,99629.88
2022-08-11T19:47:20.384Z,99637.69
2022-08-11T19:49:49.737Z,99640.16
2022-08-11T19:52:18.868Z,99643.88
2022-08-11T19:54:49.214Z,99640.22
2022-08-11T19:57:18.358Z,99637.56
2022-08-11T19:59:49.711Z,99642.28
2022-08-11T20:02:17.579Z,99638.59
2022-08-11T20:04:46.021Z,99632.00
2022-08-11T20:07:14.210Z,99634.69
2022-08-11T20:10:05.182Z,99630.34
2022-08-11T20:12:33.036Z,99632.00
2022-08-11T20:15:04.430Z,99633.25
2022-08-11T20:17:37.529Z,99642.47
2022-08-11T20:20:08.521Z,99633.81
2022-08-11T20:22:36.913Z,99637.72
2022-08-11T20:25:06.664Z,99632.38
2022-08-11T20:27:37.889Z,99634.81
2022-08-11T20:30:08.180Z,99632.72
2022-08-11T20:32:38.933Z,99637.41
2022-08-11T20:35:09.466Z,99630.19
2022-08-11T20:37:41.032Z,99638.78
2022-08-11T20:40:14.826Z,99643.69
2022-08-11T20:42:44.491Z,99642.47
2022-08-11T20:45:15.666Z,99647.31
2022-08-11T20:47:59.420Z,99641.63
2022-08-11T20:50:31.710Z,99649.19
2022-08-11T20:52:59.459Z,99652.88
2022-08-11T20:55:51.662Z,99652.66
2022-08-11T20:58:21.958Z,99652.22
2022-08-11T21:00:55.474Z,99650.16
2022-08-11T21:03:36.224Z,99646.00
2022-08-11T21:06:14.628Z,99648.69
2022-08-11T21:09:01.619Z,99647.44
2022-08-11T21:11:30.313Z,99641.47
2022-08-11T21:14:00.703Z,99651.50
2022-08-11T21:16:36.365Z,99659.00
2022-08-11T21:19:13.232Z,99647.06
2022-08-11T21:21:46.277Z,99646.59
2022-08-11T21:24:20.080Z,99658.06
2022-08-11T21:26:52.510Z,99659.47
2022-08-11T21:29:22.413Z,99655.25
2022-08-11T21:31:54.618Z,99650.97
2022-08-11T21:34:24.682Z,99646.97
2022-08-11T21:36:53.655Z,99646.59
2022-08-11T21:39:25.393Z,99645.28
2022-08-11T21:41:54.340Z,99650.41
2022-08-11T21:44:23.275Z,99651.19
2022-08-11T21:46:53.356Z,99649.97
2022-08-11T21:49:22.971Z,99658.63
2022-08-11T21:51:49.812Z,99648.13
2022-08-11T21:54:17.790Z,99652.94
2022-08-11T21:56:47.168Z,99646.44
2022-08-11T21:59:23.679Z,99647.81
2022-08-11T22:01:54.467Z,99637.75
2022-08-11T22:04:21.736Z,99649.22
2022-08-11T22:06:51.243Z,99657.47
2022-08-11T22:09:18.891Z,99648.03
2022-08-11T22:11:46.371Z,99648.03
2022-08-11T22:14:14.227Z,99648.69
2022-08-11T22:16:41.075Z,99650.53
2022-08-11T22:19:09.990Z,99644.41
2022-08-11T22:22:02.742Z,99655.06
2022-08-11T22:24:30.467Z,99643.44
2022-08-11T22:26:57.895Z,99646.91
2022-08-11T22:29:38.195Z,99652.66
2022-08-11T22:32:13.333Z,99644.88
2022-08-11T22:34:52.999Z,99647.75
2022-08-11T22:37:27.281Z,99654.06
2022-08-11T22:40:03.066Z,99651.78
2022-08-11T22:42:33.985Z,99657.13
2022-08-11T22:45:01.703Z,99654.19
2022-08-11T22:47:36.422Z,99660.28
2022-08-11T22:50:13.118Z,99663.28
2022-08-11T22:52:45.692Z,99672.03
2022-08-11T22:55:14.953Z,99658.13
2022-08-11T22:58:00.951Z,99669.50
2022-08-11T23:00:30.527Z,99667.47
2022-08-11T23:02:59.448Z,99675.44
2022-08-11T23:05:29.348Z,99669.09
2022-08-11T23:07:58.159Z,99649.31
2022-08-11T23:10:27.691Z,99664.31
2022-08-11T23:12:56.581Z,99667.06
2022-08-11T23:15:24.496Z,99664.53
2022-08-11T23:17:52.223Z,99666.06
2022-08-11T23:20:29.645Z,99671.75
2022-08-11T23:23:09.742Z,99664.09
2022-08-11T23:25:39.250Z,99664.44
2022-08-11T23:28:09.869Z,99664.19
2022-08-11T23:30:38.758Z,99665.09
2022-08-11T23:33:07.970Z,99670.97
2022-08-11T23:35:40.493Z,99672.72
2022-08-11T23:38:29.019Z,99671.16
2022-08-11T23:40:56.233Z,99681.50
2022-08-11T23:43:24.460Z,99673.81
2022-08-11T23:45:51.362Z,99690.91
2022-08-11T23:48:26.831Z,99677.47
2022-08-11T23:50:59.402Z,99680.28
2022-08-11T23:53:29.314Z,99685.28
2022-08-11T23:55:56.258Z,99682.34
2022-08-11T23:58:25.989Z,99689.66
